Roy Baker — WDC2698 — position and weather

sailwx.info

Track history (hours):
 
Tides and Currents Weather Stations Pressure Air Temp Water Temp Dewpoint Dewpoint Depression Visibility Wind Speed Wind Dir Waves Ship Positions

Roy Baker

Owner: Kirby Inland Marine LP, Houston, TX. More information available from US FCC via Universal Licensing System and Coast Guard Vessel Documentation Center.

Last reported at 2014-Nov-24 08:33 UTC. Time now 2014-Nov-24 20:17 UTC.
Position N 29°47' W 092°08'.

Length 24 m; draft 2.3 m.

Type: Towing. MMSI: 366996540.

Date/timePositionNaut miles runAvg speedWind from/ knotsBaromVisibWave heightAir tempDewpointWater temp
2014-Nov-24 08:33N 29°47' W 092°08'9 6.8
2014-Nov-24 07:11N 29°50' W 091°58'32 6.2
2014-Nov-24 02:06N 29°39' W 091°24'4 7.9
2014-Nov-24 01:33N 29°38' W 091°19'5 4.8
2014-Nov-24 00:33N 29°40' W 091°14'4 4.1
2014-Nov-23 23:33N 29°41' W 091°09'7 6.5
2014-Nov-23 22:33N 29°37' W 091°03'29 5.7
2014-Nov-23 17:23N 29°34' W 090°30'35 4.4
2014-Nov-23 09:30N 29°55' W 089°58'4 4.2
2014-Nov-23 08:33N 29°58' W 090°02'3 2.6
2014-Nov-23 07:31N 29°60' W 089°59'0 0.0
2014-Nov-23 06:24N 29°60' W 089°59'0 0.0
2014-Nov-23 05:32N 29°60' W 089°59'0 0.0
2014-Nov-23 04:30N 29°60' W 089°59'0 0.0
2014-Nov-23 03:29N 29°60' W 089°59'0 0.0
2014-Nov-23 02:33N 29°60' W 089°59'0 0.0
2014-Nov-23 01:32N 29°60' W 089°59'0 0.0
2014-Nov-23 00:33N 29°60' W 089°59'0 0.0
2014-Nov-22 23:28N 29°60' W 089°59'0 0.0
2014-Nov-22 22:33N 29°60' W 089°59'0 0.0
2014-Nov-22 21:33N 29°60' W 089°59'0 0.0
2014-Nov-22 20:32N 29°60' W 089°59'0 0.0
2014-Nov-22 19:33N 29°60' W 089°59'0 0.0
2014-Nov-22 18:30N 29°60' W 089°59'0 0.0
2014-Nov-22 17:24N 29°60' W 089°59'0 0.0
2014-Nov-22 16:32N 29°60' W 089°59'0 0.0
2014-Nov-22 15:12N 29°60' W 089°59'  
2014-Nov-18 13:32N 29°56' W 089°59'1 0.3
2014-Nov-18 09:31N 29°55' W 089°58'1 1.0
2014-Nov-18 08:26N 29°54' W 089°59'7 3.5
2014-Nov-18 06:32N 29°49' W 090°04'28 3.9
2014-Nov-17 23:26N 29°34' W 090°31'24 3.9
2014-Nov-17 17:24N 29°36' W 090°58'5 5.3
2014-Nov-17 16:33N 29°37' W 091°03'5 5.3
2014-Nov-17 15:33N 29°40' W 091°08'3 3.0
2014-Nov-17 14:33N 29°41' W 091°11'3 3.1
2014-Nov-17 13:33N 29°40' W 091°14'5 4.9
2014-Nov-17 12:33N 29°38' W 091°20'5 5.1
2014-Nov-17 11:33N 29°39' W 091°26'5 4.6
2014-Nov-17 10:33N 29°42' W 091°30'5 4.6
2014-Nov-17 09:28N 29°45' W 091°35'  
Track history (hours):
 
Tides and Currents Weather Stations Pressure Air Temp Water Temp Dewpoint Dewpoint Depression Visibility Wind Speed Wind Dir Waves Ship Positions

Roy Baker

Owner: Kirby Inland Marine LP, Houston, TX. More information available from US FCC via Universal Licensing System and Coast Guard Vessel Documentation Center.

Last reported at 2014-Nov-24 08:33 UTC. Time now 2014-Nov-24 20:17 UTC.
Position N 29°47' W 092°08'.

Length 24 m; draft 2.3 m.

Type: Towing. MMSI: 366996540.

Date/timePositionNaut miles runAvg speedWind from/ knotsBaromVisibWave heightAir tempDewpointWater temp
2014-Nov-24 08:33N 29°47' W 092°08'9 6.8
2014-Nov-24 07:11N 29°50' W 091°58'32 6.2
2014-Nov-24 02:06N 29°39' W 091°24'4 7.9
2014-Nov-24 01:33N 29°38' W 091°19'5 4.8
2014-Nov-24 00:33N 29°40' W 091°14'4 4.1
2014-Nov-23 23:33N 29°41' W 091°09'7 6.5
2014-Nov-23 22:33N 29°37' W 091°03'29 5.7
2014-Nov-23 17:23N 29°34' W 090°30'35 4.4
2014-Nov-23 09:30N 29°55' W 089°58'4 4.2
2014-Nov-23 08:33N 29°58' W 090°02'3 2.6
2014-Nov-23 07:31N 29°60' W 089°59'0 0.0
2014-Nov-23 06:24N 29°60' W 089°59'0 0.0
2014-Nov-23 05:32N 29°60' W 089°59'0 0.0
2014-Nov-23 04:30N 29°60' W 089°59'0 0.0
2014-Nov-23 03:29N 29°60' W 089°59'0 0.0
2014-Nov-23 02:33N 29°60' W 089°59'0 0.0
2014-Nov-23 01:32N 29°60' W 089°59'0 0.0
2014-Nov-23 00:33N 29°60' W 089°59'0 0.0
2014-Nov-22 23:28N 29°60' W 089°59'0 0.0
2014-Nov-22 22:33N 29°60' W 089°59'0 0.0
2014-Nov-22 21:33N 29°60' W 089°59'0 0.0
2014-Nov-22 20:32N 29°60' W 089°59'0 0.0
2014-Nov-22 19:33N 29°60' W 089°59'0 0.0
2014-Nov-22 18:30N 29°60' W 089°59'0 0.0
2014-Nov-22 17:24N 29°60' W 089°59'0 0.0
2014-Nov-22 16:32N 29°60' W 089°59'0 0.0
2014-Nov-22 15:12N 29°60' W 089°59'  
2014-Nov-18 13:32N 29°56' W 089°59'1 0.3
2014-Nov-18 09:31N 29°55' W 089°58'1 1.0
2014-Nov-18 08:26N 29°54' W 089°59'7 3.5
2014-Nov-18 06:32N 29°49' W 090°04'28 3.9
2014-Nov-17 23:26N 29°34' W 090°31'24 3.9
2014-Nov-17 17:24N 29°36' W 090°58'5 5.3
2014-Nov-17 16:33N 29°37' W 091°03'5 5.3
2014-Nov-17 15:33N 29°40' W 091°08'3 3.0
2014-Nov-17 14:33N 29°41' W 091°11'3 3.1
2014-Nov-17 13:33N 29°40' W 091°14'5 4.9
2014-Nov-17 12:33N 29°38' W 091°20'5 5.1
2014-Nov-17 11:33N 29°39' W 091°26'5 4.6
2014-Nov-17 10:33N 29°42' W 091°30'5 4.6
2014-Nov-17 09:28N 29°45' W 091°35'  

Dump ship's entire track history